x

Sentry Shoal (46131) Wave Buoy

4:00pm - Thu 21st Sep 2017 All times are PDT. -7 hours from GMT.

  • Sig Wave height 0.3ft
  • Peak Period 3s
  • Wind
    4mph, 7mph gusts
  • Sea Temp 60°f
  • Air Temp 58°f
  • Sea Pressure 1014.3mb
  • Sentry Shoal
  • Sentry Shoal

More Historic Weather Station data

Upgrade to MSW Pro to gain access to the past 30 days of data for over 8000 Wavebouys and Weather Stations around the globe.

Join

Comparision Forecast

View Surf forecast
   
Thu 09/21 4:00pm 0.3ft 3s 4 7 mph 1014.3mb 60f 58f
3:00pm  -  2s 7 7 mph 1014.1mb 59f 58f
2:00pm  -  2s 4 4 mph 1014.3mb 60f 58f
1:00pm 0.3ft 2s 4 7 mph 1014.7mb 59f 57f
12:00pm 0.3ft 2s 2 2 mph 1014.8mb 57f 56f
9:00am 0.3ft 2s 7 9 mph 1014mb 58f 55f
8:00am 0.3ft 2s 2 4 mph 1013.6mb 57f 56f
7:00am 0.7ft 2s 4 4 mph 1012.9mb 57f 55f
6:00am 0.7ft 3s 4 4 mph 1012.2mb 57f 55f
5:00am 1ft 3s 11 13 mph 1011.5mb 57f 55f
4:00am 1.3ft 3s 9 11 mph 1011.1mb 57f 56f
3:00am 1.3ft 3s 9 11 mph 1010.7mb 57f 56f
2:00am 1ft 2s 11 13 mph 1010.3mb 57f 56f
1:00am 0.7ft 2s 13 16 mph 1009.7mb 57f 56f
12:00am 0.7ft 2s 9 11 mph 1009.6mb 57f 56f
Wed 09/20 11:00pm 1ft 2s 13 18 mph 1008.7mb 57f 57f
10:00pm 1.3ft 3s 13 18 mph 1008.4mb 58f 57f
9:00pm 1.3ft 3s 13 18 mph 1008.1mb 58f 58f
8:00pm 0.7ft 2s 16 18 mph 1007.5mb 58f 59f
7:00pm 0.3ft 2s 2 7 mph 1007mb 58f 58f
6:00pm 0.7ft 2s 2 4 mph 1006.7mb 58f 58f
5:00pm 0.3ft 3s 4 4 mph 1006.6mb 59f 58f
4:00pm 0.7ft 3s 4 7 mph 1006.6mb 59f 58f
3:00pm 0.3ft 2s 7 9 mph 1006.8mb 58f 57f
2:00pm 0.3ft 2s  -  2 mph 1006.8mb 58f 57f
1:00pm 0.7ft 2s 4 4 mph 1007mb 57f 54f
12:00pm 0.7ft 2s 9 11 mph 1006.8mb 56f 54f
11:00am 0.7ft 3s 11 13 mph 1006.5mb 56f 53f
10:00am 1ft 3s 9 11 mph 1006mb 56f 52f
9:00am 1.3ft 3s 13 13 mph 1005.7mb 56f 51f
8:00am 1.3ft 3s 13 16 mph 1005.5mb 56f 50f
7:00am 1ft 3s 13 16 mph 1005.3mb 56f 50f
6:00am 1ft 3s 13 16 mph 1005mb 56f 50f
5:00am 1ft 3s 13 16 mph 1005mb 57f 50f
4:00am 1ft 2s 13 16 mph 1004.9mb 57f 51f
3:00am 0.7ft 2s 11 13 mph 1005mb 56f 50f
2:00am 0.7ft 2s 13 13 mph 1005.3mb 56f 50f
1:00am 0.3ft 2s 9 11 mph 1005.4mb 56f 50f
12:00am 0.3ft 3s 9 9 mph 1005.7mb 56f 51f
Tue 09/19 11:00pm 0.3ft 3s 4 7 mph 1005.7mb 57f 52f
10:00pm 0.3ft 2s 7 9 mph 1006mb 57f 52f
9:00pm 0.3ft 2s 2 2 mph 1005.9mb 58f 54f
8:00pm 0.3ft 2s 4 4 mph 1005.9mb 58f 54f
7:00pm 0.3ft 2s 7 9 mph 1006.1mb 57f 54f
6:00pm 0.3ft 2s 4 7 mph 1006.4mb 58f 54f
5:00pm 0.3ft 2s 4 4 mph 1006.7mb 58f 53f
4:00pm 0.3ft 4s 2 4 mph 1006.9mb 58f 55f
3:00pm 0.3ft 2s  -  2 mph 1007.2mb 58f 54f
2:00pm 0.3ft 2s  -  mph 1007.5mb 57f 54f
1:00pm 0.3ft 4s 4 4 mph 1007.9mb 57f 52f
12:00pm 0.3ft 2s 4 4 mph 1008.2mb 57f 52f
11:00am 0.3ft 2s 4 4 mph 1008.2mb 56f 51f
10:00am 0.3ft 3s 7 7 mph 1007.8mb 56f 51f
9:00am 0.3ft 3s 4 7 mph 1007.5mb 56f 51f
8:00am 0.3ft 2s 4 7 mph 1007.2mb 56f 51f
7:00am 0.7ft 3s 4 4 mph 1006.8mb 56f 51f
6:00am 0.7ft 3s 4 4 mph 1006.5mb 56f 51f
5:00am 0.7ft 3s 2 4 mph 1006.2mb 56f 51f
4:00am 0.7ft 3s 4 7 mph 1005.9mb 56f 51f
3:00am 1ft 3s 7 9 mph 1005.7mb 56f 51f
2:00am 1ft 3s 4 4 mph 1005.6mb 56f 52f
1:00am 1.3ft 3s 4 7 mph 1005.4mb 56f 51f
12:00am 1.6ft 3s 9 11 mph 1005.2mb 56f 53f
Mon 09/18 11:00pm 1.3ft 4s 11 13 mph 1005mb 55f 53f
10:00pm 1.6ft 4s 7 9 mph 1005.1mb 55f 53f
9:00pm 2ft 4s 4 7 mph 1004.8mb 55f 52f
8:00pm 1.6ft 4s 11 13 mph 1004.4mb 55f 54f
7:00pm 2ft 4s 7 7 mph 1004.4mb 56f 55f
6:00pm 2ft 4s 9 9 mph 1004.3mb 56f 56f
5:00pm 1.6ft 3s 16 18 mph 1004.4mb 56f 56f
4:00pm 1.6ft 3s 13 16 mph 1004.8mb 56f 56f
3:00pm 1.6ft 3s 13 16 mph 1004.9mb 56f 57f
2:00pm 1.6ft 3s 13 16 mph 1005.3mb 56f 56f
1:00pm 1.3ft 3s 16 18 mph 1005.6mb 56f 56f
12:00pm 1ft 3s 7 9 mph 1006.2mb 57f 55f
11:00am 0.7ft 3s  -  mph 1006.5mb 56f 54f
10:00am 0.7ft 3s 2 2 mph 1006.6mb 55f 51f
9:00am 1ft 3s 4 7 mph 1006.3mb 55f 50f
8:00am 0.7ft 2s 4 7 mph 1006.3mb 55f 49f
7:00am 0.7ft 2s 4 7 mph 1006.1mb 55f 48f
6:00am 0.7ft 2s 4 9 mph 1005.7mb 55f 51f
5:00am 0.3ft 2s 9 9 mph 1005.7mb 56f 50f
4:00am 0.3ft 3s 7 9 mph 1005.9mb 56f 52f
3:00am 0.3ft 4s 4 7 mph 1006.4mb 56f 53f
2:00am 0.3ft 4s 2 2 mph 1007mb 56f 53f
1:00am 0.3ft 4s 4 7 mph 1007.1mb 56f 53f